sensor_id;sensor_type;location;lat;lon;timestamp;P1;durP1;ratioP1;P2;durP2;ratioP2
20232;SDS011;37438;55.674;13.074;2022-08-25T00:02:33;4.18;;;1.83;;
20232;SDS011;37438;55.674;13.074;2022-08-25T00:05:39;3.40;;;1.92;;
20232;SDS011;37438;55.674;13.074;2022-08-25T00:08:44;5.50;;;2.30;;
20232;SDS011;37438;55.674;13.074;2022-08-25T00:11:49;3.72;;;1.60;;
20232;SDS011;37438;55.674;13.074;2022-08-25T00:14:54;5.72;;;2.25;;
20232;SDS011;37438;55.674;13.074;2022-08-25T00:21:04;4.70;;;1.55;;
20232;SDS011;37438;55.674;13.074;2022-08-25T00:24:12;3.67;;;1.80;;
20232;SDS011;37438;55.674;13.074;2022-08-25T00:27:18;4.85;;;2.25;;
20232;SDS011;37438;55.674;13.074;2022-08-25T00:33:27;5.28;;;2.10;;
20232;SDS011;37438;55.674;13.074;2022-08-25T00:36:34;3.78;;;1.90;;
20232;SDS011;37438;55.674;13.074;2022-08-25T00:39:39;4.35;;;2.30;;
20232;SDS011;37438;55.674;13.074;2022-08-25T00:42:43;8.13;;;1.98;;
20232;SDS011;37438;55.674;13.074;2022-08-25T00:45:48;3.78;;;1.50;;
20232;SDS011;37438;55.674;13.074;2022-08-25T00:48:58;3.97;;;2.05;;
20232;SDS011;37438;55.674;13.074;2022-08-25T00:55:28;3.78;;;1.73;;
20232;SDS011;37438;55.674;13.074;2022-08-25T00:58:38;6.68;;;2.20;;
20232;SDS011;37438;55.674;13.074;2022-08-25T01:01:45;6.32;;;2.10;;
20232;SDS011;37438;55.674;13.074;2022-08-25T01:04:50;3.78;;;2.10;;
20232;SDS011;37438;55.674;13.074;2022-08-25T01:07:55;9.23;;;2.20;;
20232;SDS011;37438;55.674;13.074;2022-08-25T01:11:05;6.28;;;1.63;;
20232;SDS011;37438;55.674;13.074;2022-08-25T01:14:12;3.65;;;1.90;;
20232;SDS011;37438;55.674;13.074;2022-08-25T01:17:19;5.32;;;1.80;;
20232;SDS011;37438;55.674;13.074;2022-08-25T01:20:25;3.58;;;1.58;;
20232;SDS011;37438;55.674;13.074;2022-08-25T01:23:32;3.83;;;2.05;;
20232;SDS011;37438;55.674;13.074;2022-08-25T01:26:37;5.13;;;2.63;;
20232;SDS011;37438;55.674;13.074;2022-08-25T01:29:41;4.53;;;2.58;;
20232;SDS011;37438;55.674;13.074;2022-08-25T01:32:46;3.78;;;1.88;;
20232;SDS011;37438;55.674;13.074;2022-08-25T01:38:55;4.85;;;1.75;;
20232;SDS011;37438;55.674;13.074;2022-08-25T01:45:11;5.30;;;1.73;;
20232;SDS011;37438;55.674;13.074;2022-08-25T01:48:17;2.63;;;1.67;;
20232;SDS011;37438;55.674;13.074;2022-08-25T01:51:23;7.93;;;2.45;;
20232;SDS011;37438;55.674;13.074;2022-08-25T01:54:28;4.65;;;1.92;;
20232;SDS011;37438;55.674;13.074;2022-08-25T01:57:32;1.58;;;1.17;;
20232;SDS011;37438;55.674;13.074;2022-08-25T02:00:37;3.38;;;1.63;;
20232;SDS011;37438;55.674;13.074;2022-08-25T02:03:50;3.58;;;1.80;;
20232;SDS011;37438;55.674;13.074;2022-08-25T02:06:57;3.92;;;1.65;;
20232;SDS011;37438;55.674;13.074;2022-08-25T02:10:07;2.95;;;1.90;;
20232;SDS011;37438;55.674;13.074;2022-08-25T02:13:12;2.20;;;1.92;;
20232;SDS011;37438;55.674;13.074;2022-08-25T02:16:22;3.25;;;1.65;;
20232;SDS011;37438;55.674;13.074;2022-08-25T02:19:35;4.88;;;2.28;;
20232;SDS011;37438;55.674;13.074;2022-08-25T02:22:40;7.53;;;2.53;;
20232;SDS011;37438;55.674;13.074;2022-08-25T02:25:54;2.90;;;2.05;;
20232;SDS011;37438;55.674;13.074;2022-08-25T02:29:00;7.15;;;1.95;;
20232;SDS011;37438;55.674;13.074;2022-08-25T02:35:09;2.00;;;1.80;;
20232;SDS011;37438;55.674;13.074;2022-08-25T02:38:14;4.88;;;2.00;;
20232;SDS011;37438;55.674;13.074;2022-08-25T02:41:20;3.22;;;2.30;;
20232;SDS011;37438;55.674;13.074;2022-08-25T02:44:34;4.38;;;2.28;;
20232;SDS011;37438;55.674;13.074;2022-08-25T02:47:39;9.05;;;2.05;;
20232;SDS011;37438;55.674;13.074;2022-08-25T02:50:47;4.60;;;2.15;;
20232;SDS011;37438;55.674;13.074;2022-08-25T02:53:55;9.18;;;2.38;;
20232;SDS011;37438;55.674;13.074;2022-08-25T02:57:01;1.92;;;1.48;;
20232;SDS011;37438;55.674;13.074;2022-08-25T03:00:06;2.65;;;1.50;;
20232;SDS011;37438;55.674;13.074;2022-08-25T03:03:15;8.18;;;2.28;;
20232;SDS011;37438;55.674;13.074;2022-08-25T03:06:20;4.30;;;2.47;;
20232;SDS011;37438;55.674;13.074;2022-08-25T03:09:27;4.40;;;1.73;;
20232;SDS011;37438;55.674;13.074;2022-08-25T03:15:35;2.80;;;1.48;;
20232;SDS011;37438;55.674;13.074;2022-08-25T03:18:41;4.78;;;1.85;;
20232;SDS011;37438;55.674;13.074;2022-08-25T03:21:46;5.10;;;2.50;;
20232;SDS011;37438;55.674;13.074;2022-08-25T03:24:51;7.88;;;1.92;;
20232;SDS011;37438;55.674;13.074;2022-08-25T03:28:15;3.80;;;1.60;;
20232;SDS011;37438;55.674;13.074;2022-08-25T03:31:21;3.42;;;1.98;;
20232;SDS011;37438;55.674;13.074;2022-08-25T03:34:28;4.78;;;1.80;;
20232;SDS011;37438;55.674;13.074;2022-08-25T03:37:33;3.15;;;1.50;;
20232;SDS011;37438;55.674;13.074;2022-08-25T03:40:37;2.67;;;1.50;;
20232;SDS011;37438;55.674;13.074;2022-08-25T03:46:48;3.80;;;1.25;;
20232;SDS011;37438;55.674;13.074;2022-08-25T03:49:54;2.55;;;1.58;;
20232;SDS011;37438;55.674;13.074;2022-08-25T03:52:59;2.58;;;1.90;;
20232;SDS011;37438;55.674;13.074;2022-08-25T03:56:03;4.32;;;1.83;;
20232;SDS011;37438;55.674;13.074;2022-08-25T04:02:12;4.22;;;2.00;;
20232;SDS011;37438;55.674;13.074;2022-08-25T04:05:17;3.92;;;1.60;;
20232;SDS011;37438;55.674;13.074;2022-08-25T04:08:23;2.25;;;1.60;;
20232;SDS011;37438;55.674;13.074;2022-08-25T04:11:28;2.15;;;1.70;;
20232;SDS011;37438;55.674;13.074;2022-08-25T04:14:32;3.10;;;1.20;;
20232;SDS011;37438;55.674;13.074;2022-08-25T04:17:37;6.10;;;1.70;;
20232;SDS011;37438;55.674;13.074;2022-08-25T04:20:43;3.85;;;2.13;;
20232;SDS011;37438;55.674;13.074;2022-08-25T04:23:49;2.33;;;1.58;;
20232;SDS011;37438;55.674;13.074;2022-08-25T04:26:55;4.43;;;1.40;;
20232;SDS011;37438;55.674;13.074;2022-08-25T04:30:00;3.03;;;1.85;;
20232;SDS011;37438;55.674;13.074;2022-08-25T04:36:09;1.75;;;1.65;;
20232;SDS011;37438;55.674;13.074;2022-08-25T04:39:17;4.78;;;1.55;;
20232;SDS011;37438;55.674;13.074;2022-08-25T04:42:24;4.15;;;1.52;;
20232;SDS011;37438;55.674;13.074;2022-08-25T04:45:29;3.15;;;2.05;;
20232;SDS011;37438;55.674;13.074;2022-08-25T04:48:34;1.98;;;1.40;;
20232;SDS011;37438;55.674;13.074;2022-08-25T04:51:39;3.03;;;1.00;;
20232;SDS011;37438;55.674;13.074;2022-08-25T04:54:45;6.90;;;2.08;;
20232;SDS011;37438;55.674;13.074;2022-08-25T04:57:50;2.05;;;1.70;;
20232;SDS011;37438;55.674;13.074;2022-08-25T05:00:59;2.47;;;1.40;;
20232;SDS011;37438;55.674;13.074;2022-08-25T05:04:06;10.05;;;2.08;;
20232;SDS011;37438;55.674;13.074;2022-08-25T05:07:17;1.50;;;1.38;;
20232;SDS011;37438;55.674;13.074;2022-08-25T05:10:21;3.40;;;1.30;;
20232;SDS011;37438;55.674;13.074;2022-08-25T05:13:29;2.53;;;1.38;;
20232;SDS011;37438;55.674;13.074;2022-08-25T05:16:34;2.42;;;1.35;;
20232;SDS011;37438;55.674;13.074;2022-08-25T05:19:38;1.80;;;1.50;;
20232;SDS011;37438;55.674;13.074;2022-08-25T05:22:43;4.65;;;1.38;;
20232;SDS011;37438;55.674;13.074;2022-08-25T05:25:49;3.97;;;2.08;;
20232;SDS011;37438;55.674;13.074;2022-08-25T05:28:56;6.65;;;2.53;;
20232;SDS011;37438;55.674;13.074;2022-08-25T05:32:01;4.45;;;2.45;;
20232;SDS011;37438;55.674;13.074;2022-08-25T05:35:06;5.38;;;3.55;;
20232;SDS011;37438;55.674;13.074;2022-08-25T05:38:11;7.43;;;3.65;;
20232;SDS011;37438;55.674;13.074;2022-08-25T05:41:19;9.45;;;5.07;;
20232;SDS011;37438;55.674;13.074;2022-08-25T05:44:25;5.47;;;3.95;;
20232;SDS011;37438;55.674;13.074;2022-08-25T05:47:29;11.55;;;4.70;;
20232;SDS011;37438;55.674;13.074;2022-08-25T05:50:34;14.82;;;6.65;;
20232;SDS011;37438;55.674;13.074;2022-08-25T05:53:40;6.47;;;5.22;;
20232;SDS011;37438;55.674;13.074;2022-08-25T05:56:47;9.45;;;5.40;;
20232;SDS011;37438;55.674;13.074;2022-08-25T05:59:51;9.82;;;5.95;;
20232;SDS011;37438;55.674;13.074;2022-08-25T06:02:56;10.35;;;6.85;;
20232;SDS011;37438;55.674;13.074;2022-08-25T06:06:04;13.60;;;7.30;;
20232;SDS011;37438;55.674;13.074;2022-08-25T06:09:09;10.73;;;7.05;;
20232;SDS011;37438;55.674;13.074;2022-08-25T06:12:15;15.07;;;7.72;;
20232;SDS011;37438;55.674;13.074;2022-08-25T06:15:21;10.50;;;6.43;;
20232;SDS011;37438;55.674;13.074;2022-08-25T06:18:27;13.10;;;6.30;;
20232;SDS011;37438;55.674;13.074;2022-08-25T06:24:37;14.18;;;7.32;;
20232;SDS011;37438;55.674;13.074;2022-08-25T06:27:41;10.73;;;6.47;;
20232;SDS011;37438;55.674;13.074;2022-08-25T06:30:46;12.18;;;7.50;;
20232;SDS011;37438;55.674;13.074;2022-08-25T06:33:51;11.55;;;7.03;;
20232;SDS011;37438;55.674;13.074;2022-08-25T06:36:55;8.30;;;5.38;;
20232;SDS011;37438;55.674;13.074;2022-08-25T06:40:00;13.23;;;6.43;;
20232;SDS011;37438;55.674;13.074;2022-08-25T06:43:05;13.32;;;5.85;;
20232;SDS011;37438;55.674;13.074;2022-08-25T06:46:13;7.20;;;5.65;;
20232;SDS011;37438;55.674;13.074;2022-08-25T06:49:19;11.50;;;5.25;;
20232;SDS011;37438;55.674;13.074;2022-08-25T06:52:24;6.82;;;4.88;;
20232;SDS011;37438;55.674;13.074;2022-08-25T06:55:32;10.82;;;5.28;;
20232;SDS011;37438;55.674;13.074;2022-08-25T06:58:38;9.30;;;4.43;;
20232;SDS011;37438;55.674;13.074;2022-08-25T07:01:42;10.85;;;4.43;;
20232;SDS011;37438;55.674;13.074;2022-08-25T07:04:48;11.23;;;5.22;;
20232;SDS011;37438;55.674;13.074;2022-08-25T07:07:52;8.02;;;4.43;;
20232;SDS011;37438;55.674;13.074;2022-08-25T07:10:57;6.38;;;3.95;;
20232;SDS011;37438;55.674;13.074;2022-08-25T07:14:09;11.85;;;3.65;;
20232;SDS011;37438;55.674;13.074;2022-08-25T07:17:15;5.88;;;2.83;;
20232;SDS011;37438;55.674;13.074;2022-08-25T07:20:21;12.30;;;3.20;;
20232;SDS011;37438;55.674;13.074;2022-08-25T07:23:25;5.70;;;3.22;;
20232;SDS011;37438;55.674;13.074;2022-08-25T07:26:31;5.35;;;3.35;;
20232;SDS011;37438;55.674;13.074;2022-08-25T07:29:42;6.78;;;3.33;;
20232;SDS011;37438;55.674;13.074;2022-08-25T07:32:46;5.55;;;2.85;;
20232;SDS011;37438;55.674;13.074;2022-08-25T07:35:57;4.40;;;2.15;;
20232;SDS011;37438;55.674;13.074;2022-08-25T07:39:02;3.28;;;2.42;;
20232;SDS011;37438;55.674;13.074;2022-08-25T07:42:08;3.08;;;2.17;;
20232;SDS011;37438;55.674;13.074;2022-08-25T07:45:16;3.33;;;1.92;;
20232;SDS011;37438;55.674;13.074;2022-08-25T07:48:24;7.32;;;2.17;;
20232;SDS011;37438;55.674;13.074;2022-08-25T07:51:28;1.65;;;1.40;;
20232;SDS011;37438;55.674;13.074;2022-08-25T07:54:33;2.05;;;1.58;;
20232;SDS011;37438;55.674;13.074;2022-08-25T07:57:41;4.47;;;1.05;;
20232;SDS011;37438;55.674;13.074;2022-08-25T08:00:46;4.65;;;1.20;;
20232;SDS011;37438;55.674;13.074;2022-08-25T08:03:53;2.35;;;1.10;;
20232;SDS011;37438;55.674;13.074;2022-08-25T08:06:58;3.88;;;1.33;;
20232;SDS011;37438;55.674;13.074;2022-08-25T08:10:03;2.60;;;1.05;;
20232;SDS011;37438;55.674;13.074;2022-08-25T08:13:29;1.33;;;0.70;;
20232;SDS011;37438;55.674;13.074;2022-08-25T08:16:34;2.05;;;1.15;;
20232;SDS011;37438;55.674;13.074;2022-08-25T08:19:38;3.47;;;1.08;;
20232;SDS011;37438;55.674;13.074;2022-08-25T08:22:47;2.22;;;0.77;;
20232;SDS011;37438;55.674;13.074;2022-08-25T08:25:52;3.05;;;1.00;;
20232;SDS011;37438;55.674;13.074;2022-08-25T08:28:56;3.25;;;0.88;;
20232;SDS011;37438;55.674;13.074;2022-08-25T08:32:01;2.60;;;0.60;;
20232;SDS011;37438;55.674;13.074;2022-08-25T08:35:08;3.65;;;0.77;;
20232;SDS011;37438;55.674;13.074;2022-08-25T08:38:13;1.92;;;1.05;;
20232;SDS011;37438;55.674;13.074;2022-08-25T08:45:29;2.97;;;0.70;;
20232;SDS011;37438;55.674;13.074;2022-08-25T08:51:55;3.42;;;0.75;;
20232;SDS011;37438;55.674;13.074;2022-08-25T08:55:04;8.10;;;0.73;;
20232;SDS011;37438;55.674;13.074;2022-08-25T08:58:17;3.60;;;0.95;;
20232;SDS011;37438;55.674;13.074;2022-08-25T09:01:41;2.10;;;0.60;;
20232;SDS011;37438;55.674;13.074;2022-08-25T09:05:01;5.78;;;0.90;;
20232;SDS011;37438;55.674;13.074;2022-08-25T09:08:11;2.05;;;0.50;;
20232;SDS011;37438;55.674;13.074;2022-08-25T09:15:03;3.17;;;1.07;;
20232;SDS011;37438;55.674;13.074;2022-08-25T09:19:04;3.90;;;1.45;;
20232;SDS011;37438;55.674;13.074;2022-08-25T09:22:24;2.92;;;0.50;;
20232;SDS011;37438;55.674;13.074;2022-08-25T09:29:26;3.10;;;0.77;;
20232;SDS011;37438;55.674;13.074;2022-08-25T09:32:38;2.97;;;0.60;;
20232;SDS011;37438;55.674;13.074;2022-08-25T09:35:55;2.15;;;0.50;;
20232;SDS011;37438;55.674;13.074;2022-08-25T09:39:00;1.50;;;0.28;;
20232;SDS011;37438;55.674;13.074;2022-08-25T09:42:05;1.77;;;0.63;;
20232;SDS011;37438;55.674;13.074;2022-08-25T09:45:12;1.45;;;0.50;;
20232;SDS011;37438;55.674;13.074;2022-08-25T09:48:31;2.70;;;0.90;;
20232;SDS011;37438;55.674;13.074;2022-08-25T09:51:44;2.38;;;0.63;;
20232;SDS011;37438;55.674;13.074;2022-08-25T09:54:49;3.22;;;0.88;;
20232;SDS011;37438;55.674;13.074;2022-08-25T09:57:56;3.25;;;0.52;;
20232;SDS011;37438;55.674;13.074;2022-08-25T10:04:09;1.17;;;0.60;;
20232;SDS011;37438;55.674;13.074;2022-08-25T10:10:33;3.25;;;0.70;;
20232;SDS011;37438;55.674;13.074;2022-08-25T10:13:46;4.80;;;0.45;;
20232;SDS011;37438;55.674;13.074;2022-08-25T10:17:10;4.85;;;0.60;;
20232;SDS011;37438;55.674;13.074;2022-08-25T10:20:41;1.85;;;1.13;;
20232;SDS011;37438;55.674;13.074;2022-08-25T10:23:48;3.92;;;1.08;;
20232;SDS011;37438;55.674;13.074;2022-08-25T10:37:18;2.22;;;0.60;;
20232;SDS011;37438;55.674;13.074;2022-08-25T10:40:39;1.90;;;0.52;;
20232;SDS011;37438;55.674;13.074;2022-08-25T10:44:06;4.25;;;1.02;;
20232;SDS011;37438;55.674;13.074;2022-08-25T10:47:43;4.22;;;0.57;;
20232;SDS011;37438;55.674;13.074;2022-08-25T10:54:44;7.00;;;0.88;;
20232;SDS011;37438;55.674;13.074;2022-08-25T11:08:41;3.92;;;0.77;;
20232;SDS011;37438;55.674;13.074;2022-08-25T11:11:54;3.13;;;0.80;;
20232;SDS011;37438;55.674;13.074;2022-08-25T11:15:11;2.00;;;0.63;;
20232;SDS011;37438;55.674;13.074;2022-08-25T11:18:24;4.68;;;0.50;;
20232;SDS011;37438;55.674;13.074;2022-08-25T11:21:43;4.50;;;0.93;;
20232;SDS011;37438;55.674;13.074;2022-08-25T11:24:57;3.08;;;0.55;;
20232;SDS011;37438;55.674;13.074;2022-08-25T11:31:47;9.05;;;1.13;;
20232;SDS011;37438;55.674;13.074;2022-08-25T11:34:56;2.65;;;0.73;;
20232;SDS011;37438;55.674;13.074;2022-08-25T11:38:12;3.25;;;0.82;;
20232;SDS011;37438;55.674;13.074;2022-08-25T11:45:21;5.72;;;0.65;;
20232;SDS011;37438;55.674;13.074;2022-08-25T11:52:00;4.97;;;0.73;;
20232;SDS011;37438;55.674;13.074;2022-08-25T11:55:26;1.58;;;0.50;;
20232;SDS011;37438;55.674;13.074;2022-08-25T11:58:50;2.42;;;1.25;;
20232;SDS011;37438;55.674;13.074;2022-08-25T12:05:05;1.52;;;0.52;;
20232;SDS011;37438;55.674;13.074;2022-08-25T12:09:32;3.80;;;1.02;;
20232;SDS011;37438;55.674;13.074;2022-08-25T12:15:53;3.53;;;0.75;;
20232;SDS011;37438;55.674;13.074;2022-08-25T12:19:21;3.22;;;0.98;;
20232;SDS011;37438;55.674;13.074;2022-08-25T12:25:37;3.20;;;0.63;;
20232;SDS011;37438;55.674;13.074;2022-08-25T12:36:05;4.70;;;0.50;;
20232;SDS011;37438;55.674;13.074;2022-08-25T12:39:18;5.78;;;0.93;;
20232;SDS011;37438;55.674;13.074;2022-08-25T12:42:33;3.17;;;0.80;;
20232;SDS011;37438;55.674;13.074;2022-08-25T12:45:44;3.63;;;0.85;;
20232;SDS011;37438;55.674;13.074;2022-08-25T12:52:00;0.80;;;0.40;;
20232;SDS011;37438;55.674;13.074;2022-08-25T12:55:21;1.98;;;0.73;;
20232;SDS011;37438;55.674;13.074;2022-08-25T12:58:45;1.65;;;0.43;;
20232;SDS011;37438;55.674;13.074;2022-08-25T13:05:39;5.72;;;1.10;;
20232;SDS011;37438;55.674;13.074;2022-08-25T13:12:21;2.40;;;1.02;;
20232;SDS011;37438;55.674;13.074;2022-08-25T13:15:35;2.72;;;0.43;;
20232;SDS011;37438;55.674;13.074;2022-08-25T13:18:57;0.93;;;0.50;;
20232;SDS011;37438;55.674;13.074;2022-08-25T13:22:11;5.00;;;1.05;;
20232;SDS011;37438;55.674;13.074;2022-08-25T13:25:20;5.00;;;0.63;;
20232;SDS011;37438;55.674;13.074;2022-08-25T13:28:36;2.53;;;0.77;;
20232;SDS011;37438;55.674;13.074;2022-08-25T13:31:52;3.75;;;0.90;;
20232;SDS011;37438;55.674;13.074;2022-08-25T13:35:23;1.70;;;0.65;;
20232;SDS011;37438;55.674;13.074;2022-08-25T13:38:35;1.33;;;0.60;;
20232;SDS011;37438;55.674;13.074;2022-08-25T13:41:48;3.88;;;0.50;;
20232;SDS011;37438;55.674;13.074;2022-08-25T13:44:58;3.85;;;0.70;;
20232;SDS011;37438;55.674;13.074;2022-08-25T13:48:03;1.52;;;0.32;;
20232;SDS011;37438;55.674;13.074;2022-08-25T13:54:28;3.45;;;0.60;;
20232;SDS011;37438;55.674;13.074;2022-08-25T13:57:44;3.90;;;0.60;;
20232;SDS011;37438;55.674;13.074;2022-08-25T14:01:09;1.77;;;0.50;;
20232;SDS011;37438;55.674;13.074;2022-08-25T14:04:46;5.50;;;0.82;;
20232;SDS011;37438;55.674;13.074;2022-08-25T14:07:55;3.50;;;0.60;;
20232;SDS011;37438;55.674;13.074;2022-08-25T14:14:37;4.03;;;0.75;;
20232;SDS011;37438;55.674;13.074;2022-08-25T14:17:42;5.15;;;0.40;;
20232;SDS011;37438;55.674;13.074;2022-08-25T14:20:54;1.45;;;0.32;;
20232;SDS011;37438;55.674;13.074;2022-08-25T14:24:00;1.48;;;0.32;;
20232;SDS011;37438;55.674;13.074;2022-08-25T14:27:05;1.05;;;0.47;;
20232;SDS011;37438;55.674;13.074;2022-08-25T14:30:09;5.43;;;0.43;;
20232;SDS011;37438;55.674;13.074;2022-08-25T14:33:15;6.57;;;0.95;;
20232;SDS011;37438;55.674;13.074;2022-08-25T14:36:23;9.63;;;1.08;;
20232;SDS011;37438;55.674;13.074;2022-08-25T14:39:29;4.22;;;0.70;;
20232;SDS011;37438;55.674;13.074;2022-08-25T14:42:33;3.88;;;0.88;;
20232;SDS011;37438;55.674;13.074;2022-08-25T14:45:39;3.85;;;1.15;;
20232;SDS011;37438;55.674;13.074;2022-08-25T14:48:46;3.83;;;1.13;;
20232;SDS011;37438;55.674;13.074;2022-08-25T14:52:08;3.95;;;0.60;;
20232;SDS011;37438;55.674;13.074;2022-08-25T14:55:20;2.67;;;0.90;;
20232;SDS011;37438;55.674;13.074;2022-08-25T14:58:34;4.82;;;0.70;;
20232;SDS011;37438;55.674;13.074;2022-08-25T15:01:54;10.63;;;1.02;;
20232;SDS011;37438;55.674;13.074;2022-08-25T15:05:01;2.47;;;0.40;;
20232;SDS011;37438;55.674;13.074;2022-08-25T15:08:09;3.20;;;0.50;;
20232;SDS011;37438;55.674;13.074;2022-08-25T15:11:43;1.48;;;0.70;;
20232;SDS011;37438;55.674;13.074;2022-08-25T15:14:49;2.42;;;0.55;;
20232;SDS011;37438;55.674;13.074;2022-08-25T15:17:54;5.13;;;0.65;;
20232;SDS011;37438;55.674;13.074;2022-08-25T15:21:04;5.60;;;1.02;;
20232;SDS011;37438;55.674;13.074;2022-08-25T15:24:09;1.98;;;0.65;;
20232;SDS011;37438;55.674;13.074;2022-08-25T15:27:17;2.25;;;0.80;;
20232;SDS011;37438;55.674;13.074;2022-08-25T15:30:23;2.15;;;0.77;;
20232;SDS011;37438;55.674;13.074;2022-08-25T15:33:34;1.17;;;0.50;;
20232;SDS011;37438;55.674;13.074;2022-08-25T15:36:39;3.83;;;0.50;;
20232;SDS011;37438;55.674;13.074;2022-08-25T15:39:44;4.97;;;0.73;;
20232;SDS011;37438;55.674;13.074;2022-08-25T15:42:50;0.65;;;0.40;;
20232;SDS011;37438;55.674;13.074;2022-08-25T15:45:54;5.50;;;0.70;;
20232;SDS011;37438;55.674;13.074;2022-08-25T15:48:59;3.47;;;0.45;;
20232;SDS011;37438;55.674;13.074;2022-08-25T15:52:04;8.15;;;0.95;;
20232;SDS011;37438;55.674;13.074;2022-08-25T15:55:09;2.92;;;0.80;;
20232;SDS011;37438;55.674;13.074;2022-08-25T15:58:14;13.02;;;1.15;;
20232;SDS011;37438;55.674;13.074;2022-08-25T16:01:20;1.05;;;0.40;;
20232;SDS011;37438;55.674;13.074;2022-08-25T16:04:27;4.35;;;0.75;;
20232;SDS011;37438;55.674;13.074;2022-08-25T16:07:32;7.47;;;0.85;;
20232;SDS011;37438;55.674;13.074;2022-08-25T16:10:39;2.72;;;0.50;;
20232;SDS011;37438;55.674;13.074;2022-08-25T16:13:46;2.38;;;0.68;;
20232;SDS011;37438;55.674;13.074;2022-08-25T16:16:52;1.35;;;0.65;;
20232;SDS011;37438;55.674;13.074;2022-08-25T16:20:03;2.67;;;0.65;;
20232;SDS011;37438;55.674;13.074;2022-08-25T16:23:08;2.38;;;0.70;;
20232;SDS011;37438;55.674;13.074;2022-08-25T16:26:13;5.18;;;1.92;;
20232;SDS011;37438;55.674;13.074;2022-08-25T16:29:18;1.05;;;0.40;;
20232;SDS011;37438;55.674;13.074;2022-08-25T16:32:23;3.40;;;0.60;;
20232;SDS011;37438;55.674;13.074;2022-08-25T16:35:28;1.67;;;0.30;;
20232;SDS011;37438;55.674;13.074;2022-08-25T16:38:33;3.90;;;0.70;;
20232;SDS011;37438;55.674;13.074;2022-08-25T16:41:37;3.65;;;0.73;;
20232;SDS011;37438;55.674;13.074;2022-08-25T16:44:44;2.67;;;0.30;;
20232;SDS011;37438;55.674;13.074;2022-08-25T16:47:48;5.28;;;1.50;;
20232;SDS011;37438;55.674;13.074;2022-08-25T16:50:53;3.38;;;0.65;;
20232;SDS011;37438;55.674;13.074;2022-08-25T16:53:58;5.00;;;0.40;;
20232;SDS011;37438;55.674;13.074;2022-08-25T16:57:25;2.97;;;0.85;;
20232;SDS011;37438;55.674;13.074;2022-08-25T17:00:29;5.43;;;1.05;;
20232;SDS011;37438;55.674;13.074;2022-08-25T17:03:34;3.88;;;0.40;;
20232;SDS011;37438;55.674;13.074;2022-08-25T17:06:40;2.55;;;0.75;;
20232;SDS011;37438;55.674;13.074;2022-08-25T17:09:55;2.17;;;0.55;;
20232;SDS011;37438;55.674;13.074;2022-08-25T17:13:01;1.13;;;0.20;;
20232;SDS011;37438;55.674;13.074;2022-08-25T17:16:06;5.53;;;0.90;;
20232;SDS011;37438;55.674;13.074;2022-08-25T17:19:11;6.80;;;1.02;;
20232;SDS011;37438;55.674;13.074;2022-08-25T17:22:18;7.10;;;1.23;;
20232;SDS011;37438;55.674;13.074;2022-08-25T17:25:22;2.83;;;0.50;;
20232;SDS011;37438;55.674;13.074;2022-08-25T17:28:30;2.47;;;0.60;;
20232;SDS011;37438;55.674;13.074;2022-08-25T17:31:34;2.63;;;0.60;;
20232;SDS011;37438;55.674;13.074;2022-08-25T17:34:42;2.38;;;0.50;;
20232;SDS011;37438;55.674;13.074;2022-08-25T17:37:47;4.07;;;1.00;;
20232;SDS011;37438;55.674;13.074;2022-08-25T17:40:54;4.45;;;0.63;;
20232;SDS011;37438;55.674;13.074;2022-08-25T17:44:00;4.38;;;0.70;;
20232;SDS011;37438;55.674;13.074;2022-08-25T17:47:05;4.40;;;0.82;;
20232;SDS011;37438;55.674;13.074;2022-08-25T17:50:10;2.53;;;0.90;;
20232;SDS011;37438;55.674;13.074;2022-08-25T17:53:16;3.00;;;0.85;;
20232;SDS011;37438;55.674;13.074;2022-08-25T17:56:22;6.85;;;0.82;;
20232;SDS011;37438;55.674;13.074;2022-08-25T17:59:29;3.38;;;0.45;;
20232;SDS011;37438;55.674;13.074;2022-08-25T18:02:35;3.25;;;0.65;;
20232;SDS011;37438;55.674;13.074;2022-08-25T18:05:40;3.45;;;1.02;;
20232;SDS011;37438;55.674;13.074;2022-08-25T18:08:45;6.03;;;0.88;;
20232;SDS011;37438;55.674;13.074;2022-08-25T18:11:57;6.50;;;1.23;;
20232;SDS011;37438;55.674;13.074;2022-08-25T18:15:02;4.45;;;0.93;;
20232;SDS011;37438;55.674;13.074;2022-08-25T18:18:08;5.75;;;0.75;;
20232;SDS011;37438;55.674;13.074;2022-08-25T18:21:16;3.88;;;0.85;;
20232;SDS011;37438;55.674;13.074;2022-08-25T18:24:23;1.63;;;1.05;;
20232;SDS011;37438;55.674;13.074;2022-08-25T18:27:30;3.33;;;1.00;;
20232;SDS011;37438;55.674;13.074;2022-08-25T18:30:36;3.70;;;0.90;;
20232;SDS011;37438;55.674;13.074;2022-08-25T18:33:41;5.50;;;1.00;;
20232;SDS011;37438;55.674;13.074;2022-08-25T18:36:48;4.25;;;1.00;;
20232;SDS011;37438;55.674;13.074;2022-08-25T18:39:53;2.50;;;0.75;;
20232;SDS011;37438;55.674;13.074;2022-08-25T18:43:16;3.33;;;1.02;;
20232;SDS011;37438;55.674;13.074;2022-08-25T18:46:21;7.35;;;1.55;;
20232;SDS011;37438;55.674;13.074;2022-08-25T18:49:25;2.50;;;0.68;;
20232;SDS011;37438;55.674;13.074;2022-08-25T18:52:31;4.47;;;0.77;;
20232;SDS011;37438;55.674;13.074;2022-08-25T18:55:36;3.63;;;1.00;;
20232;SDS011;37438;55.674;13.074;2022-08-25T18:58:41;11.30;;;2.08;;
20232;SDS011;37438;55.674;13.074;2022-08-25T19:04:50;4.05;;;0.88;;
20232;SDS011;37438;55.674;13.074;2022-08-25T19:07:54;3.17;;;1.15;;
20232;SDS011;37438;55.674;13.074;2022-08-25T19:10:59;5.43;;;1.30;;
20232;SDS011;37438;55.674;13.074;2022-08-25T19:14:04;10.85;;;1.35;;
20232;SDS011;37438;55.674;13.074;2022-08-25T19:17:15;2.30;;;0.80;;
20232;SDS011;37438;55.674;13.074;2022-08-25T19:20:20;11.35;;;1.85;;
20232;SDS011;37438;55.674;13.074;2022-08-25T19:23:25;7.25;;;1.70;;
20232;SDS011;37438;55.674;13.074;2022-08-25T19:26:30;4.80;;;1.02;;
20232;SDS011;37438;55.674;13.074;2022-08-25T19:29:37;4.20;;;0.75;;
20232;SDS011;37438;55.674;13.074;2022-08-25T19:32:43;6.18;;;2.05;;
20232;SDS011;37438;55.674;13.074;2022-08-25T19:35:50;8.07;;;1.60;;
20232;SDS011;37438;55.674;13.074;2022-08-25T19:38:55;7.47;;;0.98;;
20232;SDS011;37438;55.674;13.074;2022-08-25T19:42:01;7.63;;;1.67;;
20232;SDS011;37438;55.674;13.074;2022-08-25T19:45:07;4.20;;;0.90;;
20232;SDS011;37438;55.674;13.074;2022-08-25T19:48:15;5.80;;;1.05;;
20232;SDS011;37438;55.674;13.074;2022-08-25T19:51:20;7.25;;;1.38;;
20232;SDS011;37438;55.674;13.074;2022-08-25T19:54:26;7.35;;;1.73;;
20232;SDS011;37438;55.674;13.074;2022-08-25T19:57:36;5.55;;;1.33;;
20232;SDS011;37438;55.674;13.074;2022-08-25T20:00:46;6.15;;;2.15;;
20232;SDS011;37438;55.674;13.074;2022-08-25T20:03:54;8.65;;;1.58;;
20232;SDS011;37438;55.674;13.074;2022-08-25T20:07:00;2.63;;;1.15;;
20232;SDS011;37438;55.674;13.074;2022-08-25T20:10:07;6.47;;;1.60;;
20232;SDS011;37438;55.674;13.074;2022-08-25T20:13:17;4.45;;;1.55;;
20232;SDS011;37438;55.674;13.074;2022-08-25T20:16:22;8.05;;;1.65;;
20232;SDS011;37438;55.674;13.074;2022-08-25T20:19:27;6.22;;;1.98;;
20232;SDS011;37438;55.674;13.074;2022-08-25T20:22:32;6.40;;;1.30;;
20232;SDS011;37438;55.674;13.074;2022-08-25T20:25:37;4.15;;;1.13;;
20232;SDS011;37438;55.674;13.074;2022-08-25T20:28:45;6.50;;;1.55;;
20232;SDS011;37438;55.674;13.074;2022-08-25T20:31:49;6.75;;;1.45;;
20232;SDS011;37438;55.674;13.074;2022-08-25T20:34:54;11.90;;;1.42;;
20232;SDS011;37438;55.674;13.074;2022-08-25T20:37:58;9.30;;;2.42;;
20232;SDS011;37438;55.674;13.074;2022-08-25T20:41:05;5.03;;;1.20;;
20232;SDS011;37438;55.674;13.074;2022-08-25T20:44:12;13.13;;;2.00;;
20232;SDS011;37438;55.674;13.074;2022-08-25T20:47:17;10.02;;;2.50;;